createdAt,value
2023-01-29T00:02:55.800Z,54.64
2023-01-29T00:08:01.375Z,53.98
2023-01-29T00:13:06.813Z,52.97
2023-01-29T00:18:12.251Z,53.27
2023-01-29T00:23:17.807Z,54.55
2023-01-29T00:28:23.117Z,55.12
2023-01-29T00:33:30.110Z,55.32
2023-01-29T00:38:36.524Z,55.80
2023-01-29T00:44:01.659Z,54.44
2023-01-29T00:49:08.263Z,54.75
2023-01-29T00:54:13.661Z,55.19
2023-01-29T00:59:21.354Z,55.14
2023-01-29T01:04:26.777Z,55.31
2023-01-29T01:09:52.086Z,55.25
2023-01-29T01:14:57.596Z,55.18
2023-01-29T01:20:03.972Z,54.40
2023-01-29T01:25:10.075Z,54.95
2023-01-29T01:30:17.609Z,54.62
2023-01-29T01:35:23.314Z,53.86
2023-01-29T01:40:28.752Z,54.05
2023-01-29T01:45:36.256Z,53.43
2023-01-29T01:50:50.238Z,53.62
2023-01-29T01:56:03.802Z,54.01
2023-01-29T02:01:10.333Z,53.23
2023-01-29T02:06:35.410Z,54.21
2023-01-29T02:11:41.057Z,53.57
2023-01-29T02:16:47.103Z,54.24
2023-01-29T02:22:09.515Z,53.40
2023-01-29T02:27:49.895Z,53.03
2023-01-29T02:33:02.395Z,53.22
2023-01-29T02:38:20.068Z,52.84
2023-01-29T02:43:45.953Z,52.79
2023-01-29T02:49:33.998Z,52.70
2023-01-29T02:55:22.477Z,51.51
2023-01-29T03:00:38.066Z,51.33
2023-01-29T03:05:58.895Z,51.39
2023-01-29T03:11:08.269Z,51.00
2023-01-29T03:16:50.257Z,50.82
2023-01-29T03:22:24.733Z,51.60
2023-01-29T03:28:07.735Z,50.86
2023-01-29T03:33:26.601Z,50.89
2023-01-29T03:38:32.749Z,50.56
2023-01-29T03:43:57.359Z,50.41
2023-01-29T03:49:27.649Z,50.16
2023-01-29T03:55:10.221Z,50.62
2023-01-29T04:00:24.056Z,52.12
2023-01-29T04:06:21.240Z,51.61
2023-01-29T04:11:59.492Z,51.68
2023-01-29T04:17:16.927Z,51.76
2023-01-29T04:22:38.229Z,51.03
2023-01-29T04:28:09.282Z,50.89
2023-01-29T04:33:46.690Z,50.53
2023-01-29T04:39:14.363Z,50.45
2023-01-29T04:44:45.578Z,50.40
2023-01-29T04:50:31.255Z,49.94
2023-01-29T04:56:01.787Z,50.63
2023-01-29T05:01:14.239Z,49.52
2023-01-29T05:06:21.428Z,49.93
2023-01-29T05:11:27.233Z,51.94
2023-01-29T05:16:46.128Z,51.30
2023-01-29T05:21:51.771Z,50.82
2023-01-29T05:27:16.979Z,50.29
2023-01-29T05:32:22.175Z,50.25
2023-01-29T05:37:27.383Z,51.07
2023-01-29T05:42:33.601Z,50.73
2023-01-29T05:47:38.907Z,51.89
2023-01-29T05:52:44.151Z,51.76
2023-01-29T05:57:49.080Z,52.70
2023-01-29T06:02:54.497Z,52.45
2023-01-29T06:07:59.844Z,52.41
2023-01-29T06:13:05.179Z,52.08
2023-01-29T06:18:10.649Z,51.34
2023-01-29T06:23:16.033Z,51.26
2023-01-29T06:28:21.281Z,50.98
2023-01-29T06:33:27.043Z,51.74
2023-01-29T06:38:32.617Z,50.66
2023-01-29T06:43:38.835Z,51.60
2023-01-29T06:48:44.576Z,51.67
2023-01-29T06:53:49.685Z,52.50
2023-01-29T06:58:55.211Z,52.78
2023-01-29T07:04:00.429Z,51.64
2023-01-29T07:09:06.136Z,50.71
2023-01-29T07:14:11.433Z,50.99
2023-01-29T07:19:17.120Z,51.67
2023-01-29T07:24:22.484Z,50.31
2023-01-29T07:29:27.783Z,50.18
2023-01-29T07:34:32.864Z,49.85
2023-01-29T07:39:38.138Z,49.88
2023-01-29T07:44:43.418Z,49.40
2023-01-29T07:49:48.882Z,49.62
2023-01-29T07:54:54.134Z,48.62
2023-01-29T07:59:59.439Z,48.74
2023-01-29T08:05:04.987Z,47.67
2023-01-29T08:10:10.827Z,47.53
2023-01-29T08:15:17.971Z,48.66
2023-01-29T08:20:23.847Z,47.42
2023-01-29T08:25:29.621Z,47.20
2023-01-29T08:30:35.707Z,46.41
2023-01-29T08:35:41.920Z,46.16
2023-01-29T08:40:47.740Z,45.31
2023-01-29T08:45:53.015Z,45.97
2023-01-29T08:51:03.520Z,45.30
2023-01-29T08:56:09.532Z,44.63
2023-01-29T09:01:15.785Z,45.23
2023-01-29T09:06:21.406Z,44.39
2023-01-29T09:11:27.049Z,44.19
2023-01-29T09:16:32.504Z,44.02
2023-01-29T09:21:38.026Z,43.19
2023-01-29T09:26:43.560Z,44.65
2023-01-29T09:31:48.960Z,45.22
2023-01-29T09:36:54.332Z,44.34
2023-01-29T09:42:36.082Z,45.66
2023-01-29T09:47:41.589Z,46.65
2023-01-29T09:53:22.460Z,47.31
2023-01-29T09:59:01.349Z,46.88
2023-01-29T10:04:31.856Z,46.52
2023-01-29T10:10:18.688Z,47.15
2023-01-29T10:15:46.343Z,46.65
2023-01-29T10:20:57.351Z,46.62
2023-01-29T10:26:02.824Z,47.24
2023-01-29T10:31:33.428Z,47.18
2023-01-29T10:36:47.508Z,47.57
2023-01-29T10:42:24.262Z,47.62
2023-01-29T10:48:22.811Z,48.28
2023-01-29T10:54:11.525Z,48.19
2023-01-29T10:59:16.886Z,48.13
2023-01-29T11:04:22.439Z,48.68
2023-01-29T11:09:42.466Z,48.00
2023-01-29T11:15:01.184Z,48.19
2023-01-29T11:20:28.134Z,48.06
2023-01-29T11:25:33.678Z,48.31
2023-01-29T11:30:42.595Z,48.46
2023-01-29T11:35:48.462Z,47.05
2023-01-29T11:41:01.213Z,48.72
2023-01-29T11:46:15.983Z,48.95
2023-01-29T11:51:29.511Z,48.68
2023-01-29T11:56:44.399Z,49.37
2023-01-29T12:01:49.696Z,49.18
2023-01-29T12:06:55.617Z,49.26
2023-01-29T12:12:30.430Z,48.26
2023-01-29T12:17:43.264Z,48.74
2023-01-29T12:23:16.114Z,48.04
2023-01-29T12:28:52.790Z,48.12
2023-01-29T12:34:14.098Z,48.65
2023-01-29T12:39:19.625Z,48.12
2023-01-29T12:44:44.150Z,48.15
2023-01-29T12:49:55.267Z,49.06
2023-01-29T12:55:22.857Z,47.75
2023-01-29T13:00:29.058Z,47.21
2023-01-29T13:05:43.308Z,47.58
2023-01-29T13:10:53.007Z,47.70
2023-01-29T13:16:00.639Z,49.52
2023-01-29T13:21:06.975Z,50.70
2023-01-29T13:26:14.036Z,51.02
2023-01-29T13:31:30.249Z,51.95
2023-01-29T13:36:38.406Z,52.29
2023-01-29T13:41:44.319Z,52.57
2023-01-29T13:46:57.023Z,52.51
2023-01-29T13:52:31.561Z,52.69
2023-01-29T13:57:45.313Z,53.37
2023-01-29T14:03:40.000Z,53.63
2023-01-29T14:08:56.254Z,52.55
2023-01-29T14:14:01.899Z,51.90
2023-01-29T14:19:07.397Z,52.20
2023-01-29T14:24:22.880Z,51.50
2023-01-29T14:29:39.939Z,52.13
2023-01-29T14:35:02.866Z,51.81
2023-01-29T14:40:21.650Z,51.48
2023-01-29T14:45:35.528Z,51.92
2023-01-29T14:50:42.654Z,51.40
2023-01-29T14:55:59.827Z,51.82
2023-01-29T15:01:19.777Z,52.05
2023-01-29T15:07:17.715Z,52.80
2023-01-29T15:13:03.696Z,52.49
2023-01-29T15:18:24.114Z,52.09
2023-01-29T15:23:32.333Z,53.22
2023-01-29T15:28:39.404Z,52.93
2023-01-29T15:33:47.953Z,53.67
2023-01-29T15:39:31.381Z,53.13
2023-01-29T15:44:36.738Z,52.57
2023-01-29T15:49:43.008Z,52.33
2023-01-29T15:54:49.100Z,52.40
2023-01-29T15:59:57.294Z,53.35
2023-01-29T16:05:03.704Z,54.16
2023-01-29T16:10:30.042Z,54.04
2023-01-29T16:15:38.550Z,54.02
2023-01-29T16:20:53.823Z,53.86
2023-01-29T16:26:04.699Z,52.57
2023-01-29T16:31:11.684Z,52.62
2023-01-29T16:36:21.253Z,51.57
2023-01-29T16:41:26.549Z,50.96
2023-01-29T16:46:36.466Z,51.39
2023-01-29T16:51:41.910Z,51.61
2023-01-29T16:56:49.457Z,51.18
2023-01-29T17:01:57.695Z,51.54
2023-01-29T17:07:03.647Z,50.17
2023-01-29T17:12:21.012Z,50.28
2023-01-29T17:17:36.845Z,51.56
2023-01-29T17:22:42.768Z,52.03
2023-01-29T17:27:52.247Z,52.54
2023-01-29T17:32:57.699Z,52.85
2023-01-29T17:38:03.136Z,51.73
2023-01-29T17:43:08.359Z,51.49
2023-01-29T17:48:26.038Z,51.80
2023-01-29T17:53:45.379Z,51.82
2023-01-29T17:58:54.540Z,51.00
2023-01-29T18:04:00.078Z,50.95
2023-01-29T18:09:06.096Z,51.42
2023-01-29T18:14:13.938Z,51.01
2023-01-29T18:19:31.192Z,50.48
2023-01-29T18:24:36.735Z,51.50
2023-01-29T18:29:42.219Z,51.83
2023-01-29T18:34:47.572Z,51.55
2023-01-29T18:39:54.294Z,51.62
2023-01-29T18:44:59.880Z,51.02
2023-01-29T18:50:06.897Z,51.73
2023-01-29T18:55:12.186Z,52.47
2023-01-29T19:00:17.932Z,53.08
2023-01-29T19:05:25.134Z,52.22
2023-01-29T19:10:30.487Z,51.26
2023-01-29T19:15:36.557Z,51.74
2023-01-29T19:21:07.881Z,51.08
2023-01-29T19:26:14.156Z,50.83
2023-01-29T19:31:19.495Z,51.00
2023-01-29T19:36:25.256Z,51.70
2023-01-29T19:41:30.838Z,52.29
2023-01-29T19:46:36.442Z,53.32
2023-01-29T19:51:42.019Z,53.70
2023-01-29T19:56:47.390Z,52.92
2023-01-29T20:01:52.739Z,51.77
2023-01-29T20:06:58.152Z,52.22
2023-01-29T20:12:03.585Z,52.73
2023-01-29T20:17:09.059Z,52.86
2023-01-29T20:22:14.497Z,53.27
2023-01-29T20:27:19.979Z,53.89
2023-01-29T20:32:25.386Z,54.03
2023-01-29T20:37:30.671Z,53.78
2023-01-29T20:42:35.991Z,53.19
2023-01-29T20:47:41.800Z,52.90
2023-01-29T20:52:47.750Z,52.63
2023-01-29T20:58:05.128Z,52.84
2023-01-29T21:03:14.385Z,52.11
2023-01-29T21:08:19.788Z,51.66
2023-01-29T21:13:25.184Z,53.20
2023-01-29T21:18:30.814Z,53.83
2023-01-29T21:23:35.834Z,54.04
2023-01-29T21:28:41.297Z,53.95
2023-01-29T21:33:46.638Z,53.52
2023-01-29T21:38:51.888Z,53.04
2023-01-29T21:43:57.019Z,53.02
2023-01-29T21:49:02.690Z,52.46
2023-01-29T21:54:08.139Z,53.88
2023-01-29T21:59:13.571Z,55.16
2023-01-29T22:04:19.054Z,56.13
2023-01-29T22:09:24.507Z,54.92
2023-01-29T22:14:30.060Z,55.35
2023-01-29T22:19:35.419Z,56.35
2023-01-29T22:24:41.695Z,56.48
2023-01-29T22:29:47.224Z,56.11
2023-01-29T22:34:52.608Z,56.07
2023-01-29T22:39:58.319Z,55.16
2023-01-29T22:45:03.763Z,54.51
2023-01-29T22:50:09.875Z,53.95
2023-01-29T22:55:15.299Z,53.23
2023-01-29T23:00:21.003Z,52.92
2023-01-29T23:05:26.253Z,54.62
2023-01-29T23:10:31.638Z,55.28
2023-01-29T23:15:37.155Z,55.71
2023-01-29T23:20:44.707Z,54.09
2023-01-29T23:26:09.960Z,54.65
2023-01-29T23:31:15.891Z,55.73
2023-01-29T23:36:21.350Z,56.93
2023-01-29T23:41:26.787Z,57.00
2023-01-29T23:46:32.697Z,56.11
2023-01-29T23:51:38.210Z,56.32
2023-01-29T23:56:44.527Z,56.02
